createdAt,value
2023-05-16T00:01:38.612Z,100.00
2023-05-16T00:04:05.919Z,100.00
2023-05-16T00:06:33.560Z,100.00
2023-05-16T00:09:00.695Z,100.00
2023-05-16T00:11:27.916Z,100.00
2023-05-16T00:13:55.196Z,100.00
2023-05-16T00:16:22.890Z,100.00
2023-05-16T00:18:50.111Z,100.00
2023-05-16T00:21:17.461Z,100.00
2023-05-16T00:23:44.741Z,100.00
2023-05-16T00:26:11.858Z,100.00
2023-05-16T00:28:39.622Z,100.00
2023-05-16T00:31:06.774Z,100.00
2023-05-16T00:33:34.436Z,100.00
2023-05-16T00:36:01.519Z,100.00
2023-05-16T00:38:28.737Z,100.00
2023-05-16T00:40:55.806Z,100.00
2023-05-16T00:43:22.824Z,100.00
2023-05-16T00:45:50.991Z,100.00
2023-05-16T00:48:18.375Z,100.00
2023-05-16T00:50:46.137Z,100.00
2023-05-16T00:53:13.205Z,100.00
2023-05-16T00:55:40.317Z,100.00
2023-05-16T00:58:08.038Z,100.00
2023-05-16T01:00:35.037Z,100.00
2023-05-16T01:03:02.203Z,100.00
2023-05-16T01:05:29.883Z,100.00
2023-05-16T01:07:57.252Z,100.00
2023-05-16T01:10:24.750Z,100.00
2023-05-16T01:13:09.857Z,100.00
2023-05-16T01:15:55.963Z,100.00
2023-05-16T01:18:31.501Z,100.00
2023-05-16T01:21:04.365Z,100.00
2023-05-16T01:23:53.793Z,100.00
2023-05-16T01:26:25.359Z,100.00
2023-05-16T01:28:52.864Z,100.00
2023-05-16T01:31:20.909Z,100.00
2023-05-16T01:33:48.228Z,100.00
2023-05-16T01:36:24.406Z,100.00
2023-05-16T01:39:28.579Z,100.00
2023-05-16T01:42:08.200Z,100.00
2023-05-16T01:44:53.983Z,100.00
2023-05-16T01:47:21.613Z,100.00
2023-05-16T01:49:57.648Z,100.00
2023-05-16T01:52:31.564Z,100.00
2023-05-16T01:54:58.780Z,100.00
2023-05-16T01:57:26.915Z,100.00
2023-05-16T01:59:54.076Z,100.00
2023-05-16T02:02:21.258Z,100.00
2023-05-16T02:04:48.378Z,100.00
2023-05-16T02:07:15.792Z,100.00
2023-05-16T02:09:45.313Z,100.00
2023-05-16T02:12:12.390Z,100.00
2023-05-16T02:14:39.486Z,100.00
2023-05-16T02:17:07.109Z,100.00
2023-05-16T02:19:34.186Z,100.00
2023-05-16T02:22:01.249Z,100.00
2023-05-16T02:24:28.385Z,100.00
2023-05-16T02:26:55.970Z,100.00
2023-05-16T02:29:23.120Z,100.00
2023-05-16T02:31:50.140Z,100.00
2023-05-16T02:34:17.186Z,100.00
2023-05-16T02:36:44.335Z,100.00
2023-05-16T02:39:11.588Z,100.00
2023-05-16T02:41:39.059Z,100.00
2023-05-16T02:44:06.308Z,100.00
2023-05-16T02:46:37.001Z,100.00
2023-05-16T02:49:04.178Z,100.00
2023-05-16T02:51:31.694Z,100.00
2023-05-16T02:54:00.081Z,100.00
2023-05-16T02:56:27.886Z,100.00
2023-05-16T02:58:55.041Z,100.00
2023-05-16T03:01:22.314Z,100.00
2023-05-16T03:03:49.496Z,100.00
2023-05-16T03:06:16.754Z,100.00
2023-05-16T03:08:43.829Z,100.00
2023-05-16T03:11:10.879Z,100.00
2023-05-16T03:13:38.028Z,100.00
2023-05-16T03:16:06.239Z,100.00
2023-05-16T03:18:33.578Z,100.00
2023-05-16T03:21:01.728Z,100.00
2023-05-16T03:23:28.957Z,100.00
2023-05-16T03:25:56.428Z,100.00
2023-05-16T03:28:23.484Z,100.00
2023-05-16T03:30:50.658Z,100.00
2023-05-16T03:33:18.798Z,100.00
2023-05-16T03:35:46.362Z,100.00
2023-05-16T03:38:13.741Z,100.00
2023-05-16T03:40:44.923Z,100.00
2023-05-16T03:43:12.272Z,100.00
2023-05-16T03:45:40.685Z,100.00
2023-05-16T03:48:09.275Z,100.00
2023-05-16T03:50:39.474Z,100.00
2023-05-16T03:53:08.186Z,100.00
2023-05-16T03:55:35.388Z,100.00
2023-05-16T03:58:02.471Z,100.00
2023-05-16T04:00:29.858Z,100.00
2023-05-16T04:02:57.035Z,100.00
2023-05-16T04:05:24.222Z,100.00
2023-05-16T04:07:52.493Z,100.00
2023-05-16T04:10:19.789Z,100.00
2023-05-16T04:12:46.921Z,100.00
2023-05-16T04:15:14.097Z,100.00
2023-05-16T04:17:41.342Z,100.00
2023-05-16T04:20:09.894Z,100.00
2023-05-16T04:22:36.963Z,100.00
2023-05-16T04:25:04.734Z,100.00
2023-05-16T04:27:31.797Z,100.00
2023-05-16T04:30:00.339Z,100.00
2023-05-16T04:32:29.283Z,100.00
2023-05-16T04:34:57.391Z,100.00
2023-05-16T04:37:25.204Z,100.00
2023-05-16T04:39:54.893Z,100.00
2023-05-16T04:42:22.420Z,100.00
2023-05-16T04:44:50.472Z,100.00
2023-05-16T04:47:17.710Z,100.00
2023-05-16T04:49:45.014Z,100.00
2023-05-16T04:52:12.255Z,100.00
2023-05-16T04:54:39.913Z,100.00
2023-05-16T04:57:06.987Z,100.00
2023-05-16T04:59:34.137Z,100.00
2023-05-16T05:02:01.244Z,100.00
2023-05-16T05:04:28.684Z,100.00
2023-05-16T05:06:56.167Z,100.00
2023-05-16T05:09:23.752Z,100.00
2023-05-16T05:11:51.406Z,100.00
2023-05-16T05:14:19.353Z,100.00
2023-05-16T05:16:46.969Z,100.00
2023-05-16T05:19:14.807Z,100.00
2023-05-16T05:21:42.906Z,100.00
2023-05-16T05:24:11.634Z,100.00
2023-05-16T05:26:38.854Z,100.00
2023-05-16T05:29:06.483Z,99.92
2023-05-16T05:31:35.195Z,99.63
2023-05-16T05:34:03.477Z,99.36
2023-05-16T05:36:31.318Z,98.47
2023-05-16T05:38:58.446Z,98.50
2023-05-16T05:41:26.588Z,98.64
2023-05-16T05:43:53.801Z,98.39
2023-05-16T05:46:20.981Z,98.24
2023-05-16T05:48:48.258Z,97.92
2023-05-16T05:51:15.356Z,97.26
2023-05-16T05:53:42.844Z,96.70
2023-05-16T05:56:10.002Z,96.43
2023-05-16T05:58:37.160Z,95.91
2023-05-16T06:01:04.282Z,96.11
2023-05-16T06:03:32.167Z,96.29
2023-05-16T06:05:59.435Z,96.17
2023-05-16T06:08:26.733Z,95.67
2023-05-16T06:10:54.460Z,95.50
2023-05-16T06:13:21.756Z,95.56
2023-05-16T06:15:53.266Z,94.71
2023-05-16T06:18:21.222Z,94.22
2023-05-16T06:20:48.360Z,92.77
2023-05-16T06:23:15.614Z,90.82
2023-05-16T06:25:42.701Z,89.46
2023-05-16T06:28:09.899Z,88.45
2023-05-16T06:30:37.269Z,87.88
2023-05-16T06:33:04.572Z,87.43
2023-05-16T06:35:31.885Z,86.79
2023-05-16T06:37:59.266Z,85.63
2023-05-16T06:40:26.373Z,85.38
2023-05-16T06:42:58.702Z,85.20
2023-05-16T06:45:26.916Z,84.96
2023-05-16T06:47:57.279Z,84.32
2023-05-16T06:50:25.092Z,83.82
2023-05-16T06:52:52.386Z,83.29
2023-05-16T06:55:20.357Z,81.99
2023-05-16T06:57:48.342Z,81.14
2023-05-16T07:00:16.428Z,79.88
2023-05-16T07:02:43.845Z,78.50
2023-05-16T07:05:11.184Z,77.68
2023-05-16T07:07:38.436Z,76.80
2023-05-16T07:10:06.178Z,76.22
2023-05-16T07:12:33.648Z,76.39
2023-05-16T07:15:00.932Z,76.57
2023-05-16T07:17:28.087Z,75.74
2023-05-16T07:19:55.498Z,74.49
2023-05-16T07:22:22.636Z,73.64
2023-05-16T07:24:49.795Z,73.04
2023-05-16T07:27:16.937Z,73.56
2023-05-16T07:29:44.612Z,72.94
2023-05-16T07:32:14.301Z,71.18
2023-05-16T07:34:41.418Z,69.35
2023-05-16T07:37:13.208Z,67.93
2023-05-16T07:39:41.057Z,67.81
2023-05-16T07:42:09.907Z,68.47
2023-05-16T07:44:37.130Z,69.07
2023-05-16T07:47:04.377Z,69.09
2023-05-16T07:49:31.629Z,68.80
2023-05-16T07:51:58.710Z,69.20
2023-05-16T07:54:25.792Z,69.51
2023-05-16T07:56:52.871Z,69.70
2023-05-16T07:59:21.077Z,69.03
2023-05-16T08:01:48.217Z,68.86
2023-05-16T08:04:15.334Z,68.86
2023-05-16T08:06:42.390Z,68.98
2023-05-16T08:09:09.585Z,67.70
2023-05-16T08:11:37.105Z,66.75
2023-05-16T08:14:04.374Z,67.17
2023-05-16T08:16:31.956Z,66.96
2023-05-16T08:18:59.167Z,66.72
2023-05-16T08:21:27.115Z,66.31
2023-05-16T08:23:54.456Z,66.14
2023-05-16T08:26:22.274Z,66.04
2023-05-16T08:28:50.118Z,65.20
2023-05-16T08:31:17.278Z,65.07
2023-05-16T08:33:44.516Z,65.75
2023-05-16T08:36:11.549Z,65.28
2023-05-16T08:38:38.683Z,64.53
2023-05-16T08:41:06.505Z,64.35
2023-05-16T08:43:35.347Z,64.02
2023-05-16T08:46:02.500Z,63.26
2023-05-16T08:48:29.591Z,63.39
2023-05-16T08:50:56.688Z,62.74
2023-05-16T08:53:27.900Z,62.94
2023-05-16T08:55:55.348Z,63.02
2023-05-16T08:58:22.396Z,62.79
2023-05-16T09:00:49.616Z,62.43
2023-05-16T09:03:17.344Z,61.57
2023-05-16T09:05:44.595Z,60.58
2023-05-16T09:08:12.029Z,59.21
2023-05-16T09:10:39.113Z,58.63
2023-05-16T09:13:06.296Z,58.86
2023-05-16T09:15:33.830Z,59.03
2023-05-16T09:18:01.667Z,58.06
2023-05-16T09:20:28.874Z,56.21
2023-05-16T09:22:57.181Z,54.18
2023-05-16T09:25:30.205Z,53.79
2023-05-16T09:27:59.511Z,54.55
2023-05-16T09:30:34.267Z,55.79
2023-05-16T09:33:02.360Z,56.59
2023-05-16T09:38:00.049Z,55.65
2023-05-16T09:40:27.235Z,56.46
2023-05-16T09:43:07.368Z,55.83
2023-05-16T09:45:35.609Z,55.59
2023-05-16T09:48:08.811Z,55.78
2023-05-16T09:50:37.273Z,55.16
2023-05-16T09:53:04.817Z,54.34
2023-05-16T09:55:32.588Z,54.13
2023-05-16T09:58:01.123Z,53.80
2023-05-16T10:00:32.571Z,53.61
2023-05-16T10:03:04.811Z,53.92
2023-05-16T10:05:33.530Z,52.64
2023-05-16T10:08:01.552Z,52.20
2023-05-16T10:10:29.050Z,52.16
2023-05-16T10:12:56.748Z,53.28
2023-05-16T10:15:24.659Z,53.10
2023-05-16T10:17:53.556Z,53.49
2023-05-16T10:20:21.801Z,53.12
2023-05-16T10:22:53.142Z,53.57
2023-05-16T10:25:30.512Z,54.25
2023-05-16T10:27:58.773Z,54.30
2023-05-16T10:30:26.108Z,54.23
2023-05-16T10:32:53.194Z,54.34
2023-05-16T10:35:21.069Z,54.53
2023-05-16T10:37:49.188Z,53.56
2023-05-16T10:40:17.218Z,53.82
2023-05-16T10:43:04.139Z,53.95
2023-05-16T10:45:31.602Z,53.90
2023-05-16T10:47:59.902Z,53.98
2023-05-16T10:50:39.343Z,53.81
2023-05-16T10:53:33.440Z,52.97
2023-05-16T10:56:10.989Z,53.51
2023-05-16T10:58:41.052Z,52.97
2023-05-16T11:01:27.898Z,52.30
2023-05-16T11:04:02.319Z,52.31
2023-05-16T11:06:33.563Z,51.49
2023-05-16T11:09:10.900Z,51.89
2023-05-16T11:11:47.988Z,52.09
2023-05-16T11:14:23.419Z,51.97
2023-05-16T11:16:52.177Z,51.83
2023-05-16T11:19:34.007Z,52.36
2023-05-16T11:22:20.208Z,52.85
2023-05-16T11:25:07.561Z,53.81
2023-05-16T11:27:45.315Z,55.23
2023-05-16T11:30:17.895Z,54.29
2023-05-16T11:32:45.931Z,52.41
2023-05-16T11:35:15.200Z,52.24
2023-05-16T11:37:44.219Z,52.14
2023-05-16T11:40:14.559Z,52.35
2023-05-16T11:42:44.778Z,52.64
2023-05-16T11:45:13.117Z,51.75
2023-05-16T11:47:40.846Z,51.59
2023-05-16T11:50:12.086Z,50.98
2023-05-16T11:52:44.010Z,49.77
2023-05-16T11:55:11.681Z,49.55
2023-05-16T11:57:39.917Z,49.72
2023-05-16T12:00:18.605Z,49.94
2023-05-16T12:02:56.092Z,50.08
2023-05-16T12:05:27.478Z,50.47
2023-05-16T12:07:55.558Z,49.49
2023-05-16T12:10:23.155Z,49.39
2023-05-16T12:12:53.038Z,49.68
2023-05-16T12:15:21.930Z,49.53
2023-05-16T12:17:49.245Z,49.85
2023-05-16T12:20:16.797Z,49.37
2023-05-16T12:22:45.755Z,49.03
2023-05-16T12:25:28.667Z,49.43
2023-05-16T12:27:57.610Z,47.98
2023-05-16T12:30:26.536Z,47.81
2023-05-16T12:33:01.220Z,47.27
2023-05-16T12:35:33.967Z,47.54
2023-05-16T12:38:05.011Z,47.97
2023-05-16T12:40:32.720Z,47.83
2023-05-16T12:43:00.302Z,47.34
2023-05-16T12:45:28.447Z,46.84
2023-05-16T12:47:55.824Z,46.58
2023-05-16T12:50:23.271Z,46.07
2023-05-16T12:52:53.754Z,45.23
2023-05-16T12:55:21.411Z,44.59
2023-05-16T12:57:49.197Z,44.34
2023-05-16T13:00:19.303Z,44.54
2023-05-16T13:02:47.311Z,44.11
2023-05-16T13:05:14.864Z,43.67
2023-05-16T13:07:42.055Z,43.21
2023-05-16T13:10:11.012Z,42.08
2023-05-16T13:12:39.420Z,40.90
2023-05-16T13:15:10.758Z,39.98
2023-05-16T13:17:39.202Z,38.79
2023-05-16T13:20:10.525Z,38.15
2023-05-16T13:22:37.929Z,38.19
2023-05-16T13:25:06.578Z,38.04
2023-05-16T13:27:34.388Z,37.71
2023-05-16T13:30:01.585Z,38.62
2023-05-16T13:32:28.841Z,39.08
2023-05-16T13:34:57.273Z,39.20
2023-05-16T13:37:27.521Z,38.61
2023-05-16T13:39:57.556Z,38.02
2023-05-16T13:42:24.755Z,37.03
2023-05-16T13:44:52.354Z,36.29
2023-05-16T13:47:20.080Z,36.24
2023-05-16T13:49:47.820Z,35.37
2023-05-16T13:52:15.081Z,35.13
2023-05-16T13:54:45.522Z,34.39
2023-05-16T13:57:12.621Z,33.74
2023-05-16T14:02:09.766Z,33.13
2023-05-16T14:04:37.306Z,32.84
2023-05-16T14:07:04.658Z,32.30
2023-05-16T14:09:32.171Z,32.15
2023-05-16T14:11:59.507Z,31.77
2023-05-16T14:14:26.925Z,31.67
2023-05-16T14:16:54.290Z,31.75
2023-05-16T14:19:21.926Z,31.12
2023-05-16T14:21:49.382Z,31.23
2023-05-16T14:24:16.450Z,30.51
2023-05-16T14:26:43.578Z,30.15
2023-05-16T14:29:10.809Z,30.18
2023-05-16T14:31:38.325Z,30.38
2023-05-16T14:34:05.435Z,29.70
2023-05-16T14:36:32.497Z,29.23
2023-05-16T14:38:59.802Z,28.58
2023-05-16T14:41:27.710Z,27.97
2023-05-16T14:43:56.382Z,27.35
2023-05-16T14:46:23.527Z,27.05
2023-05-16T14:48:51.417Z,27.81
2023-05-16T14:51:19.069Z,27.70
2023-05-16T14:53:47.858Z,27.64
2023-05-16T14:56:15.593Z,27.86
2023-05-16T14:58:46.254Z,27.71
2023-05-16T15:01:15.517Z,28.04
2023-05-16T15:03:54.560Z,28.24
2023-05-16T15:06:23.040Z,28.34
2023-05-16T15:08:50.355Z,28.76
2023-05-16T15:11:17.598Z,29.18
2023-05-16T15:13:44.699Z,30.37
2023-05-16T15:16:12.371Z,31.33
2023-05-16T15:18:40.671Z,32.44
2023-05-16T15:21:08.762Z,33.60
2023-05-16T15:23:36.683Z,34.96
2023-05-16T15:26:04.500Z,36.28
2023-05-16T15:28:31.739Z,37.43
2023-05-16T15:30:59.169Z,38.35
2023-05-16T15:33:26.617Z,38.97
2023-05-16T15:35:53.794Z,39.77
2023-05-16T15:38:20.918Z,40.94
2023-05-16T15:40:50.773Z,41.78
2023-05-16T15:43:25.287Z,42.73
2023-05-16T15:45:52.853Z,43.47
2023-05-16T15:48:20.944Z,43.81
2023-05-16T15:50:48.351Z,44.12
2023-05-16T15:53:16.113Z,44.35
2023-05-16T15:55:43.362Z,44.71
2023-05-16T15:58:10.516Z,44.56
2023-05-16T16:00:41.418Z,45.14
2023-05-16T16:03:10.303Z,45.59
2023-05-16T16:05:37.600Z,45.66
2023-05-16T16:08:05.498Z,45.81
2023-05-16T16:10:33.715Z,46.08
2023-05-16T16:13:02.187Z,46.14
2023-05-16T16:15:32.801Z,46.45
2023-05-16T16:18:00.998Z,46.76
2023-05-16T16:20:28.753Z,46.99
2023-05-16T16:22:59.556Z,47.60
2023-05-16T16:25:27.261Z,48.02
2023-05-16T16:27:55.126Z,48.00
2023-05-16T16:30:24.487Z,48.00
2023-05-16T16:32:52.073Z,48.33
2023-05-16T16:35:19.827Z,48.84
2023-05-16T16:38:02.468Z,48.77
2023-05-16T16:40:33.837Z,48.91
2023-05-16T16:43:01.664Z,49.13
2023-05-16T16:45:29.383Z,49.63
2023-05-16T16:47:57.992Z,51.03
2023-05-16T16:50:25.277Z,52.21
2023-05-16T16:52:55.476Z,52.82
2023-05-16T16:55:22.709Z,53.80
2023-05-16T16:57:49.878Z,54.86
2023-05-16T17:00:17.595Z,55.81
2023-05-16T17:02:45.341Z,56.79
2023-05-16T17:05:14.123Z,58.01
2023-05-16T17:07:43.079Z,59.27
2023-05-16T17:10:10.542Z,60.34
2023-05-16T17:12:44.776Z,61.94
2023-05-16T17:15:12.803Z,62.83
2023-05-16T17:17:40.098Z,64.13
2023-05-16T17:20:08.021Z,65.23
2023-05-16T17:22:35.127Z,67.74
2023-05-16T17:25:03.768Z,69.63
2023-05-16T17:27:31.040Z,70.68
2023-05-16T17:29:58.257Z,72.19
2023-05-16T17:32:26.044Z,72.78
2023-05-16T17:34:54.568Z,73.48
2023-05-16T17:37:23.280Z,74.13
2023-05-16T17:39:50.731Z,74.90
2023-05-16T17:42:17.827Z,75.25
2023-05-16T17:44:44.922Z,75.60
2023-05-16T17:47:12.026Z,76.24
2023-05-16T17:49:39.440Z,77.11
2023-05-16T17:52:07.042Z,78.42
2023-05-16T17:54:34.190Z,79.99
2023-05-16T17:57:01.695Z,81.28
2023-05-16T17:59:28.767Z,82.65
2023-05-16T18:01:57.553Z,83.88
2023-05-16T18:04:24.879Z,85.03
2023-05-16T18:06:55.742Z,85.81
2023-05-16T18:09:22.739Z,86.70
2023-05-16T18:11:50.650Z,87.52
2023-05-16T18:14:18.003Z,88.63
2023-05-16T18:16:45.140Z,89.48
2023-05-16T18:19:12.796Z,90.53
2023-05-16T18:21:40.187Z,91.40
2023-05-16T18:24:08.776Z,92.21
2023-05-16T18:26:36.357Z,93.26
2023-05-16T18:29:04.207Z,94.95
2023-05-16T18:31:33.752Z,96.69
2023-05-16T18:34:03.869Z,97.25
2023-05-16T18:36:31.374Z,97.58
2023-05-16T18:38:58.451Z,98.51
2023-05-16T18:41:26.145Z,98.62
2023-05-16T18:43:53.419Z,98.81
2023-05-16T18:46:20.826Z,99.01
2023-05-16T18:48:47.958Z,99.38
2023-05-16T18:51:15.038Z,99.42
2023-05-16T18:53:42.251Z,99.60
2023-05-16T18:56:09.344Z,99.38
2023-05-16T18:58:37.177Z,98.79
2023-05-16T19:01:04.925Z,98.42
2023-05-16T19:03:32.790Z,97.94
2023-05-16T19:06:01.195Z,97.00
2023-05-16T19:08:40.437Z,96.01
2023-05-16T19:11:17.096Z,95.02
2023-05-16T19:13:47.754Z,94.49
2023-05-16T19:16:15.197Z,93.74
2023-05-16T19:18:42.841Z,92.99
2023-05-16T19:21:11.163Z,92.10
2023-05-16T19:23:38.317Z,90.98
2023-05-16T19:26:05.472Z,90.70
2023-05-16T19:28:33.579Z,89.79
2023-05-16T19:31:00.952Z,89.04
2023-05-16T19:33:28.115Z,88.44
2023-05-16T19:35:58.897Z,88.20
2023-05-16T19:38:26.660Z,87.89
2023-05-16T19:40:54.368Z,88.06
2023-05-16T19:43:22.153Z,88.18
2023-05-16T19:45:49.797Z,88.39
2023-05-16T19:48:16.916Z,88.84
2023-05-16T19:50:44.141Z,89.66
2023-05-16T19:53:11.176Z,91.45
2023-05-16T19:55:38.361Z,92.77
2023-05-16T19:58:05.646Z,94.48
2023-05-16T20:00:32.799Z,95.81
2023-05-16T20:03:00.002Z,97.41
2023-05-16T20:05:27.629Z,99.36
2023-05-16T20:07:55.546Z,100.00
2023-05-16T20:10:22.720Z,100.00
2023-05-16T20:12:49.871Z,100.00
2023-05-16T20:15:17.808Z,100.00
2023-05-16T20:17:46.504Z,100.00
2023-05-16T20:20:13.646Z,100.00
2023-05-16T20:22:41.951Z,100.00
2023-05-16T20:25:10.120Z,100.00
2023-05-16T20:27:37.798Z,100.00
2023-05-16T20:30:07.007Z,100.00
2023-05-16T20:32:34.423Z,100.00
2023-05-16T20:35:04.445Z,100.00
2023-05-16T20:37:31.538Z,100.00
2023-05-16T20:39:58.667Z,100.00
2023-05-16T20:42:25.831Z,100.00
2023-05-16T20:44:52.891Z,100.00
2023-05-16T20:47:19.998Z,100.00
2023-05-16T20:49:48.707Z,100.00
2023-05-16T20:52:19.892Z,100.00
2023-05-16T20:54:50.308Z,100.00
2023-05-16T20:57:17.995Z,100.00
2023-05-16T20:59:45.135Z,100.00
2023-05-16T21:02:12.405Z,100.00
2023-05-16T21:04:39.596Z,100.00
2023-05-16T21:07:08.435Z,100.00
2023-05-16T21:09:37.161Z,100.00
2023-05-16T21:12:04.732Z,100.00
2023-05-16T21:14:31.768Z,100.00
2023-05-16T21:16:58.951Z,100.00
2023-05-16T21:19:26.070Z,100.00
2023-05-16T21:21:53.183Z,100.00
2023-05-16T21:24:20.235Z,100.00
2023-05-16T21:26:47.292Z,100.00
2023-05-16T21:29:16.081Z,100.00
2023-05-16T21:31:44.702Z,100.00
2023-05-16T21:34:12.126Z,100.00
2023-05-16T21:36:39.230Z,100.00
2023-05-16T21:39:06.406Z,100.00
2023-05-16T21:41:33.432Z,100.00
2023-05-16T21:44:00.495Z,100.00
2023-05-16T21:46:27.722Z,100.00
2023-05-16T21:48:54.986Z,100.00
2023-05-16T21:51:21.990Z,99.61
2023-05-16T21:53:49.062Z,97.31
2023-05-16T21:56:16.116Z,94.15
2023-05-16T21:58:43.252Z,90.69
2023-05-16T22:01:10.478Z,86.53
2023-05-16T22:03:37.583Z,83.65
2023-05-16T22:06:05.085Z,81.22
2023-05-16T22:08:32.616Z,79.29
2023-05-16T22:10:59.651Z,77.94
2023-05-16T22:13:26.669Z,76.24
2023-05-16T22:16:03.914Z,75.40
2023-05-16T22:18:32.608Z,74.11
2023-05-16T22:21:00.265Z,73.02
2023-05-16T22:23:27.907Z,72.61
2023-05-16T22:25:55.845Z,72.27
2023-05-16T22:28:23.334Z,72.08
2023-05-16T22:30:50.725Z,71.85
2023-05-16T22:33:18.511Z,71.45
2023-05-16T22:35:45.684Z,71.35
2023-05-16T22:38:13.757Z,71.29
2023-05-16T22:40:44.054Z,71.78
2023-05-16T22:43:12.131Z,72.20
2023-05-16T22:45:39.997Z,72.43
2023-05-16T22:48:07.811Z,72.92
2023-05-16T22:50:35.342Z,75.04
2023-05-16T22:53:02.639Z,76.12
2023-05-16T22:55:29.909Z,76.33
2023-05-16T22:58:00.708Z,76.74
2023-05-16T23:00:27.826Z,76.91
2023-05-16T23:02:55.324Z,77.30
2023-05-16T23:05:24.276Z,77.48
2023-05-16T23:07:51.990Z,77.45
2023-05-16T23:10:19.568Z,77.45
2023-05-16T23:12:46.668Z,77.52
2023-05-16T23:15:13.893Z,77.97
2023-05-16T23:17:41.129Z,78.83
2023-05-16T23:20:08.667Z,79.76
2023-05-16T23:22:36.079Z,80.85
2023-05-16T23:25:03.270Z,81.89
2023-05-16T23:27:31.909Z,82.78
2023-05-16T23:29:58.994Z,83.47
2023-05-16T23:32:26.566Z,83.64
2023-05-16T23:34:53.781Z,83.80
2023-05-16T23:37:21.151Z,83.30
2023-05-16T23:39:48.165Z,83.28
2023-05-16T23:42:15.401Z,83.16
2023-05-16T23:44:42.788Z,82.85
2023-05-16T23:47:09.995Z,83.09
2023-05-16T23:49:37.111Z,83.46
2023-05-16T23:52:06.109Z,83.80
2023-05-16T23:54:33.849Z,84.32
2023-05-16T23:57:01.177Z,84.45
2023-05-16T23:59:28.499Z,84.91
